createdAt,value
2022-10-28T00:00:00.496Z,42.4
2022-10-28T00:05:41.299Z,42.7
2022-10-28T00:11:16.053Z,42.6
2022-10-28T00:16:50.972Z,43.5
2022-10-28T00:22:34.770Z,43.8
2022-10-28T00:28:15.920Z,44.1
2022-10-28T00:33:53.334Z,43.3
2022-10-28T00:39:29.393Z,43.2
2022-10-28T00:45:04.528Z,43.6
2022-10-28T00:50:39.826Z,43.9
2022-10-28T00:56:23.871Z,44
2022-10-28T01:02:13.524Z,43.9
2022-10-28T01:07:51.339Z,43.8
2022-10-28T01:13:28.830Z,43.7
2022-10-28T01:19:04.933Z,43.5
2022-10-28T01:24:47.287Z,43.2
2022-10-28T01:30:25.081Z,43.3
2022-10-28T01:36:03.764Z,43
2022-10-28T01:43:06.608Z,42.5
2022-10-28T01:48:39.515Z,42.4
2022-10-28T01:55:47.672Z,42
2022-10-28T02:01:26.003Z,42.1
2022-10-28T02:07:02.974Z,41.9
2022-10-28T02:12:37.877Z,41.4
2022-10-28T02:18:20.143Z,40.8
2022-10-28T02:24:14.835Z,40.2
2022-10-28T02:29:49.729Z,40
2022-10-28T02:35:35.633Z,40
2022-10-28T02:41:32.162Z,39.6
2022-10-28T02:47:06.356Z,39.4
2022-10-28T02:52:41.800Z,39.4
2022-10-28T02:58:40.978Z,39.9
2022-10-28T03:04:37.108Z,40.5
2022-10-28T03:10:15.963Z,41.2
2022-10-28T03:16:09.332Z,41.7
2022-10-28T03:23:20.386Z,42.5
2022-10-28T03:28:55.148Z,42.9
2022-10-28T03:34:30.033Z,43.2
2022-10-28T03:42:00.158Z,43.4
2022-10-28T03:47:33.064Z,43.1
2022-10-28T03:53:08.047Z,43.5
2022-10-28T04:00:19.146Z,43.8
2022-10-28T04:06:03.149Z,44.4
2022-10-28T04:11:55.652Z,45.4
2022-10-28T04:17:31.650Z,45.4
2022-10-28T04:23:06.617Z,45.8
2022-10-28T04:28:50.931Z,46
2022-10-28T04:34:26.750Z,45.8
2022-10-28T04:40:01.819Z,45.4
2022-10-28T04:45:37.163Z,45.1
2022-10-28T04:51:14.896Z,45.1
2022-10-28T04:57:00.951Z,44.9
2022-10-28T05:02:46.446Z,44.8
2022-10-28T05:08:25.636Z,44.6
2022-10-28T05:14:12.385Z,44.4
2022-10-28T05:19:50.267Z,44.3
2022-10-28T05:25:24.951Z,44.1
2022-10-28T05:31:10.497Z,43.7
2022-10-28T05:36:45.484Z,43.7
2022-10-28T05:42:41.910Z,43
2022-10-28T05:48:14.761Z,42.9
2022-10-28T05:54:27.248Z,43.2
2022-10-28T06:00:18.014Z,43.6
2022-10-28T06:06:00.392Z,44.3
2022-10-28T06:11:36.928Z,44.8
2022-10-28T06:17:13.083Z,45.5
2022-10-28T06:22:57.722Z,46.1
2022-10-28T06:28:32.875Z,47.1
2022-10-28T06:34:12.621Z,47.5
2022-10-28T06:40:55.235Z,47.8
2022-10-28T06:46:27.813Z,48
2022-10-28T06:52:30.139Z,48.2
2022-10-28T06:58:12.853Z,46.7
2022-10-28T07:03:53.176Z,52.4
2022-10-28T07:10:19.269Z,50.2
2022-10-28T07:17:02.935Z,51.7
2022-10-28T07:22:47.017Z,54
2022-10-28T07:28:23.042Z,52.2
2022-10-28T07:34:06.881Z,49.5
2022-10-28T07:39:49.155Z,52.5
2022-10-28T07:45:25.435Z,52.2
2022-10-28T07:51:00.174Z,45.8
2022-10-28T07:56:42.889Z,45.3
2022-10-28T08:02:18.027Z,53.9
2022-10-28T08:07:53.767Z,52.6
2022-10-28T08:13:32.126Z,52.7
2022-10-28T08:19:19.477Z,52.8
2022-10-28T08:25:04.303Z,53.8
2022-10-28T08:31:09.295Z,55.5
2022-10-28T08:36:52.054Z,56.6
2022-10-28T08:42:27.600Z,59.6
2022-10-28T08:48:03.705Z,60.6
2022-10-28T08:53:38.793Z,59.6
2022-10-28T08:59:16.932Z,58.1
2022-10-28T09:04:57.636Z,55.4
2022-10-28T09:10:44.194Z,57
2022-10-28T09:16:19.660Z,55.9
2022-10-28T09:22:20.863Z,56
2022-10-28T09:28:00.766Z,49.9
2022-10-28T09:33:43.851Z,46.6
2022-10-28T09:39:30.637Z,43.8
2022-10-28T09:45:27.359Z,53.5
2022-10-28T09:51:47.056Z,55.3
2022-10-28T09:57:35.921Z,54.9
2022-10-28T10:03:21.162Z,58.2
2022-10-28T10:08:57.418Z,47.1
2022-10-28T10:14:32.650Z,52.7
2022-10-28T10:20:07.750Z,46.5
2022-10-28T10:25:42.561Z,48.1
2022-10-28T10:31:17.498Z,47.8
2022-10-28T10:36:53.359Z,46.8
2022-10-28T10:43:14.035Z,51.7
2022-10-28T10:48:47.835Z,60.4
2022-10-28T10:54:27.357Z,61.1
2022-10-28T11:00:09.897Z,60.2
2022-10-28T11:05:47.968Z,62.6
2022-10-28T11:12:06.083Z,59.3
2022-10-28T11:17:40.956Z,52.1
2022-10-28T11:23:15.952Z,51.1
2022-10-28T11:28:55.889Z,61.3
2022-10-28T11:34:31.268Z,58.4
2022-10-28T11:40:07.325Z,53.5
2022-10-28T11:45:50.265Z,44.5
2022-10-28T11:51:32.453Z,46.3
2022-10-28T11:57:21.493Z,46
2022-10-28T12:03:06.226Z,47.7
2022-10-28T12:08:42.350Z,47.5
2022-10-28T12:14:20.357Z,48.6
2022-10-28T12:19:55.824Z,46.1
2022-10-28T12:26:01.430Z,43
2022-10-28T12:31:36.838Z,42.9
2022-10-28T12:37:11.970Z,44.9
2022-10-28T12:43:12.447Z,44.3
2022-10-28T12:48:45.380Z,43.6
2022-10-28T12:54:20.511Z,45.4
2022-10-28T13:00:05.367Z,43.3
2022-10-28T13:06:13.523Z,44.8
2022-10-28T13:12:09.030Z,48.5
2022-10-28T13:17:44.271Z,51.1
2022-10-28T13:23:19.094Z,47.7
2022-10-28T13:29:17.942Z,51.1
2022-10-28T13:35:01.552Z,48.3
2022-10-28T13:41:21.711Z,49.7
2022-10-28T13:46:54.738Z,46.1
2022-10-28T13:52:30.102Z,47.7
2022-10-28T13:58:05.014Z,47.4
2022-10-28T14:03:40.599Z,47.3
2022-10-28T14:09:17.619Z,50.3
2022-10-28T14:14:53.555Z,46.8
2022-10-28T14:20:31.364Z,47.8
2022-10-28T14:26:07.303Z,43.5
2022-10-28T14:31:42.314Z,43.7
2022-10-28T14:37:18.364Z,41
2022-10-28T14:43:30.297Z,41
2022-10-28T14:49:03.677Z,40.7
2022-10-28T14:54:44.815Z,41.7
2022-10-28T15:00:23.579Z,42.9
2022-10-28T15:06:05.263Z,44.2
2022-10-28T15:11:40.321Z,44.5
2022-10-28T15:17:24.676Z,44.7
2022-10-28T15:23:36.059Z,45.3
2022-10-28T15:29:25.750Z,45.7
2022-10-28T15:35:26.588Z,47.4
2022-10-28T15:41:23.234Z,47.3
2022-10-28T15:46:56.710Z,48.7
2022-10-28T15:52:31.816Z,48.1
2022-10-28T15:58:23.492Z,47.9
2022-10-28T16:03:58.782Z,50.2
2022-10-28T16:09:39.039Z,49.4
2022-10-28T16:15:17.503Z,50.6
2022-10-28T16:20:55.426Z,48.7
2022-10-28T16:26:39.249Z,49
2022-10-28T16:32:14.143Z,49.8
2022-10-28T16:38:16.512Z,51.2
2022-10-28T16:43:52.640Z,51.6
2022-10-28T16:49:28.343Z,51.5
2022-10-28T16:55:08.918Z,50.5
2022-10-28T17:00:43.695Z,53
2022-10-28T17:06:18.675Z,57.3
2022-10-28T17:12:14.181Z,54.9
2022-10-28T17:17:50.133Z,55
2022-10-28T17:23:24.899Z,53.5
2022-10-28T17:29:08.496Z,53
2022-10-28T17:34:44.578Z,54.6
2022-10-28T17:40:19.603Z,53.2
2022-10-28T17:45:54.809Z,53
2022-10-28T17:51:29.775Z,53.8
2022-10-28T17:57:04.727Z,54.9
2022-10-28T18:02:40.395Z,57.4
2022-10-28T18:08:17.940Z,61.3
2022-10-28T18:13:52.910Z,62.2
2022-10-28T18:19:36.791Z,59.4
2022-10-28T18:25:12.580Z,63.1
2022-10-28T18:30:48.652Z,62.4
2022-10-28T18:36:24.151Z,60.8
2022-10-28T18:42:23.359Z,60.6
2022-10-28T18:47:56.851Z,62.4
2022-10-28T18:53:36.197Z,61.9
2022-10-28T18:59:10.972Z,61.6
2022-10-28T19:04:47.460Z,62.3
2022-10-28T19:10:25.112Z,63.4
2022-10-28T19:16:00.353Z,62.9
2022-10-28T19:21:37.142Z,62.4
2022-10-28T19:27:14.731Z,63.5
2022-10-28T19:32:58.016Z,64.9
2022-10-28T19:38:34.378Z,64.2
2022-10-28T19:44:09.224Z,64.1
2022-10-28T19:49:45.034Z,61.8
2022-10-28T19:55:19.988Z,62.7
2022-10-28T20:00:54.761Z,64
2022-10-28T20:06:29.718Z,63.7
2022-10-28T20:12:04.861Z,64.5
2022-10-28T20:17:41.162Z,65.7
2022-10-28T20:23:16.392Z,66.5
2022-10-28T20:28:52.362Z,68.2
2022-10-28T20:34:27.374Z,69.3
2022-10-28T20:40:07.839Z,69.8
2022-10-28T20:45:42.956Z,71
2022-10-28T20:51:17.657Z,69.5
2022-10-28T20:56:52.461Z,66.9
2022-10-28T21:02:37.419Z,67.9
2022-10-28T21:08:14.352Z,66.2
2022-10-28T21:13:52.081Z,65.3
2022-10-28T21:19:27.266Z,64.2
2022-10-28T21:25:03.125Z,62.1
2022-10-28T21:30:38.235Z,60.6
2022-10-28T21:36:33.965Z,59
2022-10-28T21:42:31.565Z,57.2
2022-10-28T21:48:04.218Z,57.3
2022-10-28T21:53:40.440Z,56.9
2022-10-28T21:59:15.367Z,56.2
2022-10-28T22:04:50.243Z,55.3
2022-10-28T22:10:25.327Z,54.7
2022-10-28T22:16:00.444Z,54.6
2022-10-28T22:21:35.506Z,50.6
2022-10-28T22:27:11.309Z,50.7
2022-10-28T22:32:46.836Z,49.4
2022-10-28T22:38:21.673Z,49.3
2022-10-28T22:43:56.684Z,48.3
2022-10-28T22:49:32.544Z,47.8
2022-10-28T22:55:08.386Z,46.7
2022-10-28T23:00:43.823Z,45.3
2022-10-28T23:06:20.094Z,42.4
2022-10-28T23:11:55.100Z,43.2
2022-10-28T23:17:30.075Z,43.1
2022-10-28T23:23:05.423Z,43.1
2022-10-28T23:28:40.301Z,43.9
2022-10-28T23:34:15.503Z,43.7
2022-10-28T23:39:50.210Z,42.8
2022-10-28T23:45:26.286Z,42.1
2022-10-28T23:51:03.190Z,41.5
2022-10-28T23:56:38.543Z,41.1
